Time;durP1;ratioP1;P1;durP2;ratioP2;P2;SDS_P1;SDS_P2;PMS_P1;PMS_P2;Temp;Humidity;BMP_temperature;BMP_pressure;BME280_temperature;BME280_humidity;BME280_pressure;Samples;Min_cycle;Max_cycle;Signal;HPM_P1;HPM_P2
2024/04/11 00:02:06;;;;;;;16.13;14.30;;;7.00;99.90;;;;;;5428959;26;20234;-47
2024/04/11 00:04:33;;;;;;;15.67;14.40;;;6.90;99.90;;;;;;5436067;26;20238;-51
2024/04/11 00:06:58;;;;;;;16.90;14.23;;;6.90;99.90;;;;;;5436050;26;20701;-48
2024/04/11 00:09:24;;;;;;;15.20;14.00;;;6.90;99.90;;;;;;5437232;26;20572;-37
2024/04/11 00:11:49;;;;;;;15.00;13.80;;;6.80;99.90;;;;;;5437299;26;20871;-39
2024/04/11 00:14:15;;;;;;;16.20;14.90;;;6.80;99.90;;;;;;5405365;26;20333;-37
2024/04/11 00:16:41;;;;;;;17.60;14.80;;;6.80;99.90;;;;;;5437142;26;20234;-38
2024/04/11 00:19:06;;;;;;;14.50;13.27;;;6.70;99.90;;;;;;5405420;26;20269;-38
2024/04/11 00:21:32;;;;;;;14.60;13.30;;;6.70;99.90;;;;;;5436783;26;20226;-37
2024/04/11 00:23:57;;;;;;;14.80;13.50;;;6.70;99.90;;;;;;5436056;26;20230;-37
2024/04/11 00:26:23;;;;;;;14.87;13.67;;;6.70;99.90;;;;;;5437128;26;20644;-36
2024/04/11 00:28:49;;;;;;;16.50;14.80;;;6.60;99.90;;;;;;5434837;26;20234;-36
2024/04/11 00:31:15;;;;;;;15.00;13.70;;;6.60;99.90;;;;;;5437595;26;20868;-36
2024/04/11 00:33:54;;;;;;;15.63;14.30;;;6.60;99.90;;;;;;5435819;26;20766;-37
2024/04/11 00:36:24;;;;;;;15.30;14.00;;;6.60;99.90;;;;;;5437043;26;21098;-37
2024/04/11 00:38:51;;;;;;;15.70;14.30;;;6.60;99.90;;;;;;5436551;26;21057;-43
2024/04/11 00:41:19;;;;;;;15.47;13.97;;;6.60;99.90;;;;;;5436579;26;20452;-49
2024/04/11 00:43:46;;;;;;;15.50;14.00;;;6.50;99.90;;;;;;5436279;26;20463;-44
2024/04/11 00:46:12;;;;;;;15.00;13.77;;;6.50;99.90;;;;;;5436745;26;20572;-45
2024/04/11 00:48:39;;;;;;;18.47;14.53;;;6.50;99.90;;;;;;5436400;26;20879;-49
2024/04/11 00:51:07;;;;;;;15.27;13.87;;;6.50;99.90;;;;;;5436784;26;20448;-44
2024/04/11 00:53:32;;;;;;;14.80;13.47;;;6.50;99.90;;;;;;5436664;26;20464;-49
2024/04/11 00:55:58;;;;;;;15.33;13.73;;;6.40;99.90;;;;;;5435532;26;20533;-45
2024/04/11 00:58:25;;;;;;;15.43;14.13;;;6.40;99.90;;;;;;5436422;26;20230;-48
2024/04/11 01:00:52;;;;;;;15.33;13.70;;;6.40;99.90;;;;;;5434646;26;20230;-49
2024/04/11 01:03:18;;;;;;;14.83;13.27;;;6.40;99.90;;;;;;5436041;26;20451;-46
2024/04/11 01:05:44;;;;;;;15.47;13.97;;;6.40;99.90;;;;;;5404805;26;20510;-36
2024/04/11 01:08:09;;;;;;;16.90;15.30;;;6.30;99.90;;;;;;5436362;26;20535;-42
2024/04/11 01:10:37;;;;;;;15.60;14.00;;;6.30;99.90;;;;;;5436196;26;20327;-39
2024/04/11 01:13:05;;;;;;;14.93;13.52;;;6.30;99.90;;;;;;5436352;26;20832;-36
2024/04/11 01:15:34;;;;;;;14.83;13.43;;;6.20;99.90;;;;;;5436305;26;20237;-40
2024/04/11 01:18:01;;;;;;;15.30;14.00;;;6.20;99.90;;;;;;5436437;26;20511;-37
2024/04/11 01:20:27;;;;;;;16.30;14.70;;;6.20;99.90;;;;;;5436136;26;20459;-49
2024/04/11 01:22:52;;;;;;;14.77;12.70;;;6.20;99.90;;;;;;5436286;26;20735;-46
2024/04/11 01:25:19;;;;;;;14.37;13.07;;;6.20;99.90;;;;;;5404658;26;20248;-40
2024/04/11 01:27:45;;;;;;;15.00;13.50;;;6.10;99.90;;;;;;5435775;26;20467;-38
2024/04/11 01:30:13;;;;;;;16.33;14.70;;;6.10;99.90;;;;;;5435045;26;20512;-37
2024/04/11 01:32:39;;;;;;;15.20;13.70;;;6.20;99.90;;;;;;5436515;26;20534;-38
2024/04/11 01:35:05;;;;;;;14.33;13.03;;;6.10;99.90;;;;;;5432963;26;21033;-37
2024/04/11 01:37:32;;;;;;;14.60;13.30;;;6.10;99.90;;;;;;5436025;26;20608;-38
2024/04/11 01:39:57;;;;;;;15.50;14.00;;;6.00;99.90;;;;;;5404055;26;20531;-38
2024/04/11 01:42:23;;;;;;;16.30;14.50;;;6.10;99.90;;;;;;5436121;26;20985;-39
2024/04/11 01:44:49;;;;;;;15.73;14.13;;;6.00;99.90;;;;;;5435813;26;20222;-37
2024/04/11 01:47:15;;;;;;;15.40;13.90;;;6.00;99.90;;;;;;5435498;26;20222;-37
2024/04/11 01:49:43;;;;;;;15.00;13.40;;;6.00;99.90;;;;;;5435660;26;20598;-45
2024/04/11 01:52:10;;;;;;;14.40;13.10;;;6.00;99.90;;;;;;5404613;26;20531;-46
2024/04/11 01:54:44;;;;;;;15.03;13.50;;;6.00;99.90;;;;;;5435419;26;20291;-47
2024/04/11 01:57:12;;;;;;;15.90;14.40;;;6.00;99.90;;;;;;5435707;26;20515;-48
2024/04/11 01:59:38;;;;;;;16.77;14.97;;;6.00;99.90;;;;;;5435632;26;20687;-47
2024/04/11 02:02:08;;;;;;;14.77;13.37;;;5.90;99.90;;;;;;5435114;26;21143;-45
2024/04/11 02:04:33;;;;;;;13.60;12.50;;;5.90;99.90;;;;;;5434517;26;20974;-46
2024/04/11 02:06:59;;;;;;;15.57;14.17;;;5.90;99.90;;;;;;5435097;26;20455;-46
2024/04/11 02:09:27;;;;;;;15.67;14.20;;;5.90;99.90;;;;;;5434769;26;20510;-45
2024/04/11 02:11:53;;;;;;;15.80;14.20;;;5.90;99.90;;;;;;5435555;26;20610;-48
2024/04/11 02:14:21;;;;;;;28.80;15.17;;;5.80;99.90;;;;;;5435229;26;20687;-47
2024/04/11 02:16:46;;;;;;;18.53;14.90;;;5.80;99.90;;;;;;5435635;26;21053;-46
2024/04/11 02:19:12;;;;;;;15.90;14.40;;;5.80;99.90;;;;;;5435518;26;20451;-37
2024/04/11 02:21:42;;;;;;;15.63;14.23;;;5.80;99.90;;;;;;5403918;26;20252;-40
2024/04/11 02:24:22;;;;;;;16.60;13.40;;;5.70;99.90;;;;;;5435162;26;20238;-37
2024/04/11 02:26:48;;;;;;;15.27;13.80;;;5.70;99.90;;;;;;5435141;26;20229;-37
2024/04/11 02:29:15;;;;;;;15.43;13.93;;;5.70;99.90;;;;;;5435292;26;20226;-37
2024/04/11 02:31:42;;;;;;;15.65;14.20;;;5.60;99.90;;;;;;5434820;26;20463;-37
2024/04/11 02:34:08;;;;;;;16.08;14.48;;;5.60;99.90;;;;;;5433523;26;20238;-37
2024/04/11 02:36:34;;;;;;;16.27;14.35;;;5.60;99.90;;;;;;5435351;26;20225;-37
2024/04/11 02:39:01;;;;;;;14.90;13.65;;;5.60;99.90;;;;;;5435712;26;20454;-38
2024/04/11 02:41:27;;;;;;;16.20;14.48;;;5.60;99.90;;;;;;5435208;26;20698;-37
2024/04/11 02:43:55;;;;;;;15.73;14.23;;;5.50;99.90;;;;;;5435496;26;20237;-37
2024/04/11 02:46:21;;;;;;;15.38;13.85;;;5.50;99.90;;;;;;5435305;26;20722;-37
2024/04/11 02:48:47;;;;;;;15.27;13.50;;;5.50;99.90;;;;;;5435567;26;20238;-37
2024/04/11 02:51:14;;;;;;;16.48;14.75;;;5.50;99.90;;;;;;5434815;26;20271;-37
2024/04/11 02:53:40;;;;;;;15.33;13.93;;;5.40;99.90;;;;;;5435270;26;20222;-47
2024/04/11 02:56:09;;;;;;;16.00;14.37;;;5.40;99.90;;;;;;5433870;26;20459;-37
2024/04/11 02:58:35;;;;;;;15.20;13.60;;;5.40;99.90;;;;;;5435203;26;20530;-39
2024/04/11 03:01:04;;;;;;;15.05;13.68;;;5.40;99.90;;;;;;5434763;26;20234;-38
2024/04/11 03:03:34;;;;;;;15.00;13.70;;;5.40;99.90;;;;;;5433257;26;20672;-37
2024/04/11 03:06:11;;;;;;;15.93;14.50;;;5.40;99.90;;;;;;5434984;26;20233;-38
2024/04/11 03:08:41;;;;;;;20.08;15.18;;;5.40;99.90;;;;;;5434727;26;20225;-37
2024/04/11 03:11:10;;;;;;;16.50;14.88;;;5.30;99.90;;;;;;5434822;26;20770;-36
2024/04/11 03:13:37;;;;;;;16.38;14.77;;;5.30;99.90;;;;;;5435075;26;20607;-36
2024/04/11 03:16:03;;;;;;;15.45;14.05;;;5.30;99.90;;;;;;5433825;26;20323;-36
2024/04/11 03:18:30;;;;;;;15.02;13.73;;;5.40;99.90;;;;;;5433764;26;21139;-37
2024/04/11 03:20:58;;;;;;;14.35;13.15;;;5.30;99.90;;;;;;5434606;26;20338;-36
2024/04/11 03:23:26;;;;;;;16.60;15.00;;;5.30;99.90;;;;;;5434307;26;20284;-36
2024/04/11 03:25:51;;;;;;;15.45;13.50;;;5.30;99.90;;;;;;5434029;26;20370;-36
2024/04/11 03:28:20;;;;;;;14.03;12.83;;;5.30;99.90;;;;;;5434148;26;20594;-36
2024/04/11 03:31:04;;;;;;;17.40;13.80;;;5.30;99.90;;;;;;5434202;26;20739;-39
2024/04/11 03:33:33;;;;;;;15.95;14.35;;;5.30;99.90;;;;;;5431789;26;20245;-37
2024/04/11 03:36:00;;;;;;;17.70;12.43;;;5.20;99.90;;;;;;5434231;26;20280;-37
2024/04/11 03:38:28;;;;;;;14.90;13.50;;;5.20;99.90;;;;;;5434259;26;20792;-37
2024/04/11 03:41:04;;;;;;;13.90;12.70;;;5.20;99.90;;;;;;5434129;26;20277;-37
2024/04/11 03:43:34;;;;;;;14.95;13.50;;;5.20;99.90;;;;;;5433690;26;20548;-37
2024/04/11 03:46:09;;;;;;;14.73;13.23;;;5.20;99.90;;;;;;5433860;26;20276;-37
2024/04/11 03:48:35;;;;;;;14.63;13.32;;;5.10;99.90;;;;;;5433603;26;20331;-37
2024/04/11 03:51:29;;;;;;;14.65;13.45;;;5.20;99.90;;;;;;5434084;26;20226;-48
2024/04/11 03:53:58;;;;;;;13.93;12.63;;;5.20;99.90;;;;;;5429978;26;20804;-37
2024/04/11 03:56:27;;;;;;;14.90;13.30;;;5.10;99.90;;;;;;5433369;26;20338;-37
2024/04/11 03:58:57;;;;;;;17.13;13.65;;;5.10;99.90;;;;;;5433035;26;20230;-37
2024/04/11 04:01:25;;;;;;;15.80;14.10;;;5.10;99.90;;;;;;5433043;26;20233;-36
2024/04/11 04:03:52;;;;;;;15.75;14.20;;;5.10;99.90;;;;;;5428776;26;20242;-36
2024/04/11 04:06:18;;;;;;;14.20;12.90;;;5.00;99.90;;;;;;5432171;26;20284;-37
2024/04/11 04:08:49;;;;;;;17.98;13.90;;;5.00;99.90;;;;;;5433360;26;20245;-37
2024/04/11 04:11:16;;;;;;;16.83;15.10;;;5.00;99.90;;;;;;5433049;26;20330;-36
2024/04/11 04:13:42;;;;;;;15.45;13.88;;;5.00;99.90;;;;;;5432310;26;20310;-36
2024/04/11 04:16:12;;;;;;;17.75;14.40;;;5.00;99.90;;;;;;5399480;26;20260;-37
2024/04/11 04:18:38;;;;;;;15.63;14.02;;;5.00;99.90;;;;;;5432132;26;20288;-36
2024/04/11 04:21:07;;;;;;;17.05;15.35;;;5.00;99.90;;;;;;5433015;26;20230;-36
2024/04/11 04:23:34;;;;;;;15.50;13.95;;;5.00;99.90;;;;;;5433787;26;20675;-37
2024/04/11 04:26:02;;;;;;;15.30;13.65;;;5.00;99.90;;;;;;5433285;26;20237;-36
2024/04/11 04:28:32;;;;;;;15.27;13.93;;;5.00;99.90;;;;;;5431627;26;20828;-37
2024/04/11 04:31:31;;;;;;;15.30;13.80;;;5.00;99.90;;;;;;5434405;26;20273;-37
2024/04/11 04:34:01;;;;;;;16.33;14.80;;;5.00;99.90;;;;;;5377117;26;20233;-37
2024/04/11 04:36:40;;;;;;;14.00;12.70;;;5.00;99.90;;;;;;5436079;26;21175;-37
2024/04/11 04:39:06;;;;;;;16.98;14.55;;;5.10;99.90;;;;;;5405483;26;20831;-37
2024/04/11 04:41:32;;;;;;;19.55;14.98;;;5.10;99.90;;;;;;5434284;26;20318;-37
2024/04/11 04:44:00;;;;;;;15.63;13.15;;;5.10;99.90;;;;;;5438265;26;20697;-38
2024/04/11 04:46:28;;;;;;;15.15;13.65;;;5.10;99.90;;;;;;5438211;26;20268;-37
2024/04/11 04:48:55;;;;;;;15.50;13.90;;;5.10;99.90;;;;;;5438501;26;20230;-38
2024/04/11 04:51:23;;;;;;;16.88;15.20;;;5.00;99.90;;;;;;5438613;26;20828;-38
2024/04/11 04:53:52;;;;;;;15.90;14.20;;;5.10;99.90;;;;;;5438719;26;20589;-38
2024/04/11 04:56:19;;;;;;;16.60;14.90;;;5.10;99.90;;;;;;5438587;26;20226;-38
2024/04/11 04:58:46;;;;;;;15.20;13.70;;;5.20;99.90;;;;;;5438311;26;20284;-38
2024/04/11 05:01:11;;;;;;;16.30;14.60;;;5.20;99.90;;;;;;5437435;26;20286;-40
2024/04/11 05:03:41;;;;;;;16.30;13.90;;;5.20;99.90;;;;;;5438770;26;20226;-38
2024/04/11 05:06:12;;;;;;;15.95;14.15;;;5.20;99.90;;;;;;5435959;26;20349;-38
2024/04/11 05:08:39;;;;;;;15.77;13.93;;;5.20;99.90;;;;;;5406614;26;20242;-40
2024/04/11 05:11:10;;;;;;;15.35;13.85;;;5.20;99.90;;;;;;5438364;26;20276;-39
2024/04/11 05:13:40;;;;;;;16.02;14.40;;;5.20;99.90;;;;;;5438428;26;20238;-38
2024/04/11 05:16:07;;;;;;;15.38;13.70;;;5.20;99.90;;;;;;5438392;26;20257;-38
2024/04/11 05:18:39;;;;;;;16.92;15.23;;;5.20;99.90;;;;;;5438249;26;20226;-38
2024/04/11 05:21:11;;;;;;;15.45;13.95;;;5.20;99.90;;;;;;5438415;26;20237;-38
2024/04/11 05:23:38;;;;;;;16.10;14.50;;;5.20;99.90;;;;;;5438418;26;20234;-39
2024/04/11 05:26:13;;;;;;;18.92;17.13;;;5.20;99.90;;;;;;5438561;26;20276;-38
2024/04/11 05:28:42;;;;;;;14.95;13.40;;;5.30;99.90;;;;;;5437190;26;20245;-38
2024/04/11 05:31:09;;;;;;;15.20;13.57;;;5.30;99.90;;;;;;5438118;26;20578;-38
2024/04/11 05:33:36;;;;;;;18.02;14.32;;;5.30;99.90;;;;;;5436237;26;20234;-38
2024/04/11 05:36:02;;;;;;;18.17;15.00;;;5.40;99.90;;;;;;5438153;26;20226;-40
2024/04/11 05:38:38;;;;;;;18.23;15.75;;;5.40;99.90;;;;;;5437421;26;20276;-37
2024/04/11 05:41:05;;;;;;;16.83;15.20;;;5.30;99.90;;;;;;5438184;26;20685;-38
2024/04/11 05:43:31;;;;;;;16.13;14.43;;;5.40;99.90;;;;;;5436809;26;20238;-40
2024/04/11 05:45:57;;;;;;;17.27;15.60;;;5.40;99.90;;;;;;5435888;26;20957;-38
2024/04/11 05:48:24;;;;;;;19.33;15.77;;;5.50;99.90;;;;;;5435957;26;20230;-38
2024/04/11 05:50:51;;;;;;;17.65;15.75;;;5.50;99.90;;;;;;5434432;26;20238;-38
2024/04/11 05:53:16;;;;;;;17.17;15.32;;;5.50;99.90;;;;;;5434983;26;20568;-38
2024/04/11 05:55:42;;;;;;;16.67;14.97;;;5.50;99.90;;;;;;5435863;26;20233;-37
2024/04/11 05:58:09;;;;;;;16.37;14.67;;;5.60;99.90;;;;;;5435227;26;20285;-38
2024/04/11 06:00:35;;;;;;;16.63;15.02;;;5.70;99.90;;;;;;5433158;26;20993;-39
2024/04/11 06:03:08;;;;;;;15.40;13.87;;;5.70;99.90;;;;;;5434027;26;20357;-37
2024/04/11 06:05:34;;;;;;;16.50;14.50;;;5.80;99.90;;;;;;5433572;26;20606;-38
2024/04/11 06:08:00;;;;;;;17.38;15.57;;;5.90;99.90;;;;;;5435151;26;20226;-37
2024/04/11 06:10:28;;;;;;;17.23;15.53;;;6.00;99.90;;;;;;5434754;26;20333;-37
2024/04/11 06:12:54;;;;;;;20.45;16.20;;;6.10;99.90;;;;;;5434968;26;20801;-38
2024/04/11 06:15:20;;;;;;;18.93;15.50;;;6.20;99.90;;;;;;5434575;26;20234;-37
2024/04/11 06:17:45;;;;;;;17.77;15.93;;;6.30;99.90;;;;;;5435217;26;20280;-39
2024/04/11 06:20:21;;;;;;;15.47;13.87;;;6.40;99.90;;;;;;5435183;26;20229;-39
2024/04/11 06:22:52;;;;;;;15.83;14.37;;;6.50;99.90;;;;;;5414688;26;20233;-38
2024/04/11 06:25:20;;;;;;;16.70;15.10;;;6.60;99.90;;;;;;5436131;26;20456;-38
2024/04/11 06:27:46;;;;;;;20.40;15.17;;;6.80;99.90;;;;;;5434354;26;20516;-38
2024/04/11 06:30:14;;;;;;;19.77;17.17;;;6.90;99.90;;;;;;5401425;26;20463;-38
2024/04/11 06:32:43;;;;;;;18.20;16.37;;;7.00;99.90;;;;;;5435009;26;20264;-38
2024/04/11 06:35:11;;;;;;;18.17;16.50;;;7.10;99.90;;;;;;5435290;26;20585;-37
2024/04/11 06:37:36;;;;;;;17.57;16.00;;;7.20;99.90;;;;;;5435297;26;20538;-38
2024/04/11 06:40:12;;;;;;;17.23;15.53;;;7.30;99.90;;;;;;5435146;26;20448;-37
2024/04/11 06:42:50;;;;;;;19.87;15.23;;;7.40;99.90;;;;;;5435175;26;20289;-37
2024/04/11 06:45:16;;;;;;;18.13;16.17;;;7.50;99.90;;;;;;5434057;26;20463;-38
2024/04/11 06:47:46;;;;;;;18.80;17.00;;;7.60;99.90;;;;;;5434830;26;20475;-39
2024/04/11 06:50:13;;;;;;;16.00;13.97;;;7.70;99.90;;;;;;5434693;26;20455;-38
2024/04/11 06:52:38;;;;;;;16.53;15.17;;;7.80;99.90;;;;;;5434817;26;20460;-39
2024/04/11 06:55:08;;;;;;;17.57;15.83;;;7.90;99.90;;;;;;5433819;26;20615;-38
2024/04/11 06:57:40;;;;;;;17.50;15.80;;;8.00;99.90;;;;;;5434936;26;20278;-39
2024/04/11 07:00:14;;;;;;;16.40;15.00;;;8.10;99.90;;;;;;5432671;26;20806;-40
2024/04/11 07:02:44;;;;;;;16.13;14.73;;;8.20;99.90;;;;;;5434774;26;20499;-38
2024/04/11 07:05:13;;;;;;;17.03;15.63;;;8.40;99.90;;;;;;5403950;26;21049;-38
2024/04/11 07:07:41;;;;;;;14.80;13.50;;;8.50;99.90;;;;;;5433791;26;20847;-38
2024/04/11 07:10:15;;;;;;;15.47;14.07;;;8.70;99.90;;;;;;5403619;26;20467;-38
2024/04/11 07:12:46;;;;;;;15.63;14.23;;;8.80;99.90;;;;;;5434783;26;20515;-38
2024/04/11 07:15:18;;;;;;;15.20;14.10;;;9.00;99.90;;;;;;5434598;26;20516;-38
2024/04/11 07:17:56;;;;;;;16.80;15.50;;;9.10;99.90;;;;;;5434013;26;20491;-38
2024/04/11 07:20:26;;;;;;;16.97;15.50;;;9.30;96.80;;;;;;5434676;26;20808;-38
2024/04/11 07:22:55;;;;;;;15.10;13.73;;;9.30;56.00;;;;;;5433702;26;21119;-38
2024/04/11 07:25:21;;;;;;;15.10;13.80;;;9.50;57.50;;;;;;5420693;26;20515;-39
2024/04/11 07:27:49;;;;;;;16.13;14.93;;;9.60;46.30;;;;;;5432888;26;20629;-39
2024/04/11 07:30:15;;;;;;;14.83;13.73;;;9.80;44.40;;;;;;5430013;26;20586;-38
2024/04/11 07:32:41;;;;;;;15.43;13.97;;;9.90;42.50;;;;;;5434277;26;20513;-39
2024/04/11 07:35:12;;;;;;;15.20;14.10;;;10.10;39.20;;;;;;5433831;26;20463;-38
2024/04/11 07:37:37;;;;;;;14.70;13.60;;;10.20;25.50;;;;;;5434667;26;20808;-39
2024/04/11 07:40:07;;;;;;;14.20;13.00;;;10.40;19.70;;;;;;5433802;26;20463;-49
2024/04/11 07:42:54;;;;;;;13.90;12.90;;;10.60;7.90;;;;;;5403052;26;20317;-48
2024/04/11 07:45:21;;;;;;;14.67;13.03;;;10.70;1.00;;;;;;5433285;26;20851;-49
2024/04/11 07:47:47;;;;;;;13.57;12.70;;;10.90;1.00;;;;;;5402144;26;21001;-48
2024/04/11 07:50:13;;;;;;;15.23;14.07;;;11.10;1.00;;;;;;5432048;26;21014;-51
2024/04/11 07:52:39;;;;;;;14.30;13.40;;;11.30;1.00;;;;;;5433438;26;20526;-46
2024/04/11 07:55:05;;;;;;;13.83;12.83;;;11.50;1.00;;;;;;5434132;26;20467;-49
2024/04/11 07:57:33;;;;;;;12.40;11.60;;;11.70;1.00;;;;;;5433790;26;20694;-53
2024/04/11 08:00:00;;;;;;;14.17;12.83;;;11.90;1.00;;;;;;5433242;26;20451;-51
2024/04/11 08:02:26;;;;;;;13.77;12.87;;;12.00;1.00;;;;;;5433555;26;20347;-47
2024/04/11 08:04:52;;;;;;;14.80;13.80;;;12.30;1.00;;;;;;5434526;26;20443;-48
2024/04/11 08:07:18;;;;;;;14.70;13.60;;;12.40;1.00;;;;;;5437472;26;21626;-51
2024/04/11 08:09:55;;;;;;;13.77;12.63;;;12.60;1.00;;;;;;5436745;26;20506;-49
2024/04/11 08:12:21;;;;;;;13.70;12.80;;;12.90;1.00;;;;;;5438306;26;20264;-51
2024/04/11 08:14:47;;;;;;;14.17;13.17;;;13.10;1.00;;;;;;5435672;26;20471;-44
2024/04/11 08:17:13;;;;;;;14.00;13.10;;;13.20;99.90;;;;;;5435769;26;20470;-49
2024/04/11 08:19:39;;;;;;;14.23;13.20;;;13.40;99.90;;;;;;5436761;26;20455;-51
2024/04/11 08:22:05;;;;;;;14.00;13.20;;;13.60;99.90;;;;;;5437892;26;20459;-47
2024/04/11 08:24:31;;;;;;;13.33;12.53;;;13.80;99.90;;;;;;5438054;26;20968;-47
2024/04/11 08:26:57;;;;;;;13.37;12.40;;;14.10;1.00;;;;;;5437667;26;20237;-48
2024/04/11 08:29:23;;;;;;;12.80;12.00;;;14.50;1.00;;;;;;5437734;26;20455;-51
2024/04/11 08:31:49;;;;;;;14.30;13.10;;;14.70;1.00;;;;;;5438263;26;20293;-47
2024/04/11 08:34:15;;;;;;;13.90;13.10;;;15.00;1.00;;;;;;5437261;26;20815;-51
2024/04/11 08:36:42;;;;;;;14.07;12.73;;;15.30;1.00;;;;;;5437672;26;20568;-50
2024/04/11 08:39:09;;;;;;;12.50;11.80;;;15.60;1.00;;;;;;5434989;26;20226;-47
2024/04/11 08:41:36;;;;;;;13.87;12.97;;;15.90;1.00;;;;;;5437818;26;20527;-49
2024/04/11 08:44:02;;;;;;;12.53;11.83;;;16.20;1.00;;;;;;5436377;26;20572;-47
2024/04/11 08:46:28;;;;;;;13.10;12.30;;;16.40;1.00;;;;;;5436943;26;20467;-52
2024/04/11 08:48:54;;;;;;;12.50;11.70;;;16.90;1.00;;;;;;5434905;26;20716;-51
2024/04/11 08:51:21;;;;;;;12.50;11.90;;;17.40;1.00;;;;;;5437081;26;20222;-44
2024/04/11 08:53:56;;;;;;;12.10;11.50;;;18.20;99.90;;;;;;5436966;26;20229;-50
2024/04/11 08:56:22;;;;;;;13.20;12.27;;;18.70;99.90;;;;;;5436618;26;21008;-48
2024/04/11 08:58:49;;;;;;;11.43;10.77;;;19.40;99.90;;;;;;5436945;26;20558;-46
2024/04/11 09:01:18;;;;;;;11.53;10.83;;;19.90;99.90;;;;;;5435692;26;20580;-46
2024/04/11 09:03:52;;;;;;;12.80;12.10;;;20.30;99.90;;;;;;5435114;26;20467;-46
2024/04/11 09:06:28;;;;;;;13.30;12.60;;;20.80;99.90;;;;;;5436521;26;20466;-47
2024/04/11 09:08:55;;;;;;;13.47;12.77;;;21.20;99.90;;;;;;5436818;26;20448;-51
2024/04/11 09:11:25;;;;;;;12.70;12.00;;;21.60;99.90;;;;;;5436657;26;20455;-49
2024/04/11 09:13:51;;;;;;;12.83;11.93;;;21.70;99.90;;;;;;5436481;26;20456;-45
2024/04/11 09:16:27;;;;;;;11.67;11.13;;;22.00;99.90;;;;;;5435753;26;20527;-45
2024/04/11 09:19:11;;;;;;;11.90;11.30;;;22.70;99.90;;;;;;5436449;26;20879;-47
2024/04/11 09:21:46;;;;;;;11.70;11.10;;;23.20;99.90;;;;;;5436811;26;20822;-48
2024/04/11 09:24:23;;;;;;;12.43;11.80;;;23.40;99.90;;;;;;5433656;26;20474;-49
2024/04/11 09:26:48;;;;;;;12.10;11.50;;;23.30;99.90;;;;;;5436280;26;21609;-48
2024/04/11 09:29:17;;;;;;;12.57;11.87;;;24.10;99.90;;;;;;5436139;26;20459;-52
2024/04/11 09:31:43;;;;;;;11.30;10.70;;;24.80;99.90;;;;;;5435338;26;20326;-50
2024/04/11 09:34:13;;;;;;;11.23;10.53;;;25.20;99.90;;;;;;5435248;26;20531;-49
2024/04/11 09:36:47;;;;;;;10.40;9.90;;;25.30;99.90;;;;;;5437092;26;21034;-52
2024/04/11 09:39:41;;;;;;;10.70;10.20;;;25.40;99.90;;;;;;5405458;26;20874;-53
2024/04/11 09:42:11;;;;;;;10.33;9.83;;;25.50;99.90;;;;;;5436960;26;20879;-48
2024/04/11 09:44:44;;;;;;;10.03;9.50;;;24.90;99.90;;;;;;5437071;26;20463;-49
2024/04/11 09:47:14;;;;;;;11.00;10.50;;;25.10;99.90;;;;;;5435793;26;20518;-54
2024/04/11 09:49:43;;;;;;;11.30;10.80;;;25.20;99.90;;;;;;5436204;26;20523;-50
2024/04/11 09:52:10;;;;;;;10.67;10.03;;;25.70;99.90;;;;;;5436827;26;20573;-49
2024/04/11 09:54:38;;;;;;;9.87;9.40;;;25.90;99.90;;;;;;5436847;26;20997;-52
2024/04/11 09:57:05;;;;;;;10.40;10.00;;;26.50;99.90;;;;;;5436712;26;20463;-45
2024/04/11 09:59:32;;;;;;;10.47;9.97;;;27.20;99.90;;;;;;5436537;26;20514;-51
2024/04/11 10:02:01;;;;;;;9.80;9.30;;;26.90;99.90;;;;;;5436248;26;20984;-52
2024/04/11 10:04:35;;;;;;;11.43;10.93;;;26.40;99.90;;;;;;5435118;26;20546;-50
2024/04/11 10:07:08;;;;;;;10.23;9.63;;;26.10;99.90;;;;;;5436382;26;20545;-49
2024/04/11 10:09:35;;;;;;;10.50;10.00;;;26.50;99.90;;;;;;5436721;26;20460;-51
2024/04/11 10:12:05;;;;;;;10.90;10.30;;;26.90;99.90;;;;;;5436352;26;21199;-45
2024/04/11 10:14:32;;;;;;;11.13;10.63;;;26.80;99.90;;;;;;5436632;26;20460;-51
2024/04/11 10:17:07;;;;;;;10.20;9.70;;;26.70;99.90;;;;;;5436279;26;20475;-50
2024/04/11 10:19:38;;;;;;;10.30;9.80;;;26.80;99.90;;;;;;5436577;26;21115;-51
2024/04/11 10:22:07;;;;;;;9.10;8.70;;;26.70;99.90;;;;;;5436249;26;20555;-48
2024/04/11 10:24:35;;;;;;;10.17;9.67;;;26.90;99.90;;;;;;5434080;26;20626;-46
2024/04/11 10:27:11;;;;;;;10.17;9.57;;;27.30;99.90;;;;;;5435776;26;20527;-49
2024/04/11 10:29:43;;;;;;;10.10;9.50;;;27.40;99.90;;;;;;5435615;26;20459;-50
2024/04/11 10:32:21;;;;;;;10.27;9.77;;;27.50;99.90;;;;;;5435784;26;20467;-51
2024/04/11 10:34:48;;;;;;;9.70;9.30;;;27.30;99.90;;;;;;5404478;26;20471;-52
2024/04/11 10:37:23;;;;;;;10.70;10.10;;;26.90;99.90;;;;;;5436822;26;20447;-52
2024/04/11 10:39:57;;;;;;;11.33;10.83;;;27.00;99.90;;;;;;5436119;26;20505;-47
2024/04/11 10:42:39;;;;;;;10.70;10.20;;;27.20;99.90;;;;;;5435441;26;20467;-52
2024/04/11 10:45:07;;;;;;;10.30;9.80;;;27.40;99.90;;;;;;5435028;26;20463;-49
2024/04/11 10:47:35;;;;;;;10.90;10.40;;;28.10;99.90;;;;;;5434890;26;21040;-52
2024/04/11 10:50:02;;;;;;;10.23;9.83;;;27.90;99.90;;;;;;5435060;26;20463;-50
2024/04/11 10:52:29;;;;;;;10.17;9.77;;;28.00;99.90;;;;;;5433254;26;20463;-51
2024/04/11 10:55:12;;;;;;;11.40;10.50;;;27.80;99.90;;;;;;5435246;26;20519;-44
2024/04/11 10:57:42;;;;;;;11.90;11.10;;;27.80;99.90;;;;;;5434989;26;20463;-43
2024/04/11 11:00:10;;;;;;;11.33;10.57;;;27.90;99.90;;;;;;5435109;26;20451;-39
2024/04/11 11:02:40;;;;;;;10.70;10.10;;;28.00;99.90;;;;;;5433717;26;20783;-46
2024/04/11 11:05:07;;;;;;;10.90;10.33;;;28.60;99.90;;;;;;5434499;26;20447;-39
2024/04/11 11:07:35;;;;;;;11.30;10.80;;;28.90;99.90;;;;;;5433879;26;20835;-39
2024/04/11 11:10:11;;;;;;;10.67;10.17;;;29.10;99.90;;;;;;5435075;26;21034;-44
2024/04/11 11:12:37;;;;;;;11.57;11.00;;;28.80;99.90;;;;;;5403483;26;20450;-41
2024/04/11 11:15:03;;;;;;;11.20;10.67;;;28.40;99.90;;;;;;5435144;26;21052;-43
2024/04/11 11:17:31;;;;;;;11.77;11.17;;;28.50;99.90;;;;;;5435161;26;20562;-38
2024/04/11 11:19:58;;;;;;;11.77;11.00;;;28.40;99.90;;;;;;5434891;26;20467;-39
2024/04/11 11:22:33;;;;;;;11.87;11.07;;;28.50;99.90;;;;;;5433942;26;20448;-38
2024/04/11 11:25:08;;;;;;;12.77;12.13;;;28.70;99.90;;;;;;5431892;26;20501;-40
2024/04/11 11:27:35;;;;;;;12.03;11.30;;;28.80;99.90;;;;;;5434080;26;20463;-41
2024/04/11 11:30:05;;;;;;;11.57;10.97;;;29.10;99.90;;;;;;5434566;26;20607;-37
2024/04/11 11:32:35;;;;;;;11.33;10.83;;;28.70;99.90;;;;;;5434584;26;20455;-38
2024/04/11 11:35:05;;;;;;;11.73;11.03;;;27.40;99.90;;;;;;5433845;26;21438;-42
2024/04/11 11:37:31;;;;;;;10.47;9.97;;;26.70;99.90;;;;;;5433278;26;20507;-37
2024/04/11 11:40:32;;;;;;;10.80;10.30;;;26.80;99.90;;;;;;5433753;26;20459;-39
2024/04/11 11:42:43;;;;;;;11.63;11.03;;;27.10;99.90;;;;;;5433892;26;20626;-38
2024/04/11 11:45:09;;;;;;;10.77;10.17;;;27.80;99.90;;;;;;5434299;26;20889;-46
2024/04/11 11:47:37;;;;;;;11.17;10.67;;;28.80;99.90;;;;;;5431190;26;20284;-45
2024/04/11 11:50:16;;;;;;;10.73;10.07;;;29.60;99.90;;;;;;5400755;26;20230;-48
2024/04/11 11:52:43;;;;;;;11.27;10.50;;;30.10;99.90;;;;;;5431948;26;20518;-46
2024/04/11 11:55:09;;;;;;;11.10;10.60;;;30.90;99.90;;;;;;5433878;26;20519;-42
2024/04/11 11:57:40;;;;;;;11.10;10.40;;;30.50;99.90;;;;;;5402706;26;20519;-52
2024/04/11 12:00:18;;;;;;;11.07;10.47;;;30.50;99.90;;;;;;5433709;26;20549;-49
2024/04/11 12:02:55;;;;;;;11.07;10.50;;;30.70;99.90;;;;;;5433999;26;20872;-48
2024/04/11 12:05:25;;;;;;;11.10;10.60;;;30.80;99.90;;;;;;5434135;26;20516;-45
2024/04/11 12:07:57;;;;;;;11.70;11.10;;;30.90;99.90;;;;;;5433834;26;20471;-51
2024/04/11 12:11:14;;;;;;;11.57;10.97;;;31.10;99.90;;;;;;5434034;26;20843;-49
2024/04/11 12:13:30;;;;;;;10.20;9.70;;;31.20;99.90;;;;;;5433758;26;20468;-45
2024/04/11 12:15:57;;;;;;;11.40;10.90;;;31.00;99.90;;;;;;5433770;26;20471;-49
2024/04/11 12:18:26;;;;;;;11.27;10.70;;;30.40;99.90;;;;;;5433189;26;20541;-49
2024/04/11 12:20:52;;;;;;;11.43;10.93;;;28.80;99.90;;;;;;5431942;26;20467;-50
2024/04/11 12:23:19;;;;;;;11.47;10.97;;;28.40;99.90;;;;;;5433433;26;21418;-44
2024/04/11 12:25:45;;;;;;;11.33;10.50;;;27.40;99.90;;;;;;5433952;26;20520;-48
2024/04/11 12:28:12;;;;;;;11.00;10.50;;;27.10;99.90;;;;;;5433597;26;20509;-44
2024/04/11 12:30:38;;;;;;;12.23;11.47;;;26.30;99.90;;;;;;5433414;26;20230;-47
2024/04/11 12:33:10;;;;;;;11.13;10.53;;;26.40;99.90;;;;;;5433934;26;20966;-48
2024/04/11 12:35:46;;;;;;;12.30;11.50;;;27.40;99.90;;;;;;5433555;26;20452;-49
2024/04/11 12:38:15;;;;;;;10.40;9.90;;;27.80;99.90;;;;;;5432424;26;20463;-46
2024/04/11 12:40:42;;;;;;;11.67;11.10;;;27.20;99.90;;;;;;5433259;26;20985;-48
2024/04/11 12:43:07;;;;;;;11.37;10.67;;;27.70;99.90;;;;;;5432848;26;20855;-51